createdAt,value
2022-11-29T00:01:26.405Z,15
2022-11-29T00:07:26.464Z,13
2022-11-29T00:13:26.410Z,13
2022-11-29T00:19:26.412Z,14
2022-11-29T00:25:26.436Z,13
2022-11-29T00:31:26.409Z,13
2022-11-29T00:37:26.385Z,11
2022-11-29T00:43:26.429Z,12
2022-11-29T00:49:26.412Z,11
2022-11-29T00:55:26.430Z,11
2022-11-29T01:01:26.475Z,11
2022-11-29T01:07:26.448Z,11
2022-11-29T01:13:26.414Z,11
2022-11-29T01:19:26.464Z,10
2022-11-29T01:25:26.407Z,10
2022-11-29T01:31:26.416Z,9
2022-11-29T01:37:26.431Z,10
2022-11-29T01:43:26.386Z,9
2022-11-29T01:49:26.435Z,9
2022-11-29T01:55:26.432Z,8
2022-11-29T02:01:26.474Z,9
2022-11-29T02:07:26.452Z,9
2022-11-29T02:13:26.435Z,9
2022-11-29T02:19:26.422Z,10
2022-11-29T02:25:26.397Z,10
2022-11-29T02:31:26.426Z,10
2022-11-29T02:37:26.411Z,9
2022-11-29T02:43:26.393Z,10
2022-11-29T02:49:26.445Z,10
2022-11-29T02:55:26.385Z,10
2022-11-29T03:01:26.466Z,10
2022-11-29T03:07:26.435Z,10
2022-11-29T03:13:26.390Z,9
2022-11-29T03:19:26.399Z,10
2022-11-29T03:25:26.413Z,10
2022-11-29T03:31:26.463Z,10
2022-11-29T03:37:26.411Z,10
2022-11-29T03:43:26.495Z,10
2022-11-29T03:49:26.566Z,10
2022-11-29T03:55:26.581Z,10
2022-11-29T04:01:26.483Z,12
2022-11-29T04:07:26.432Z,11
2022-11-29T04:13:26.404Z,11
2022-11-29T04:19:26.423Z,13
2022-11-29T04:25:26.409Z,12
2022-11-29T04:31:26.458Z,11
2022-11-29T04:37:26.439Z,13
2022-11-29T04:43:26.419Z,15
2022-11-29T04:49:26.398Z,15
2022-11-29T04:55:30.658Z,14
2022-11-29T05:01:26.414Z,14
2022-11-29T05:07:26.490Z,13
2022-11-29T05:13:26.417Z,13
2022-11-29T05:19:26.434Z,12
2022-11-29T05:25:26.390Z,9
2022-11-29T05:31:26.492Z,10
2022-11-29T05:37:26.404Z,11
2022-11-29T05:43:26.418Z,14
2022-11-29T05:49:26.467Z,15
2022-11-29T05:55:26.415Z,20
2022-11-29T06:01:26.410Z,12
2022-11-29T06:07:26.475Z,23
2022-11-29T06:13:26.402Z,20
2022-11-29T06:19:26.419Z,16
2022-11-29T06:25:26.425Z,15
2022-11-29T06:31:26.451Z,18
2022-11-29T06:37:26.452Z,19
2022-11-29T06:43:26.427Z,19
2022-11-29T06:49:26.412Z,16
2022-11-29T06:55:26.417Z,21
2022-11-29T07:01:26.504Z,23
2022-11-29T07:07:26.420Z,23
2022-11-29T07:13:26.412Z,21
2022-11-29T07:19:26.445Z,24
2022-11-29T07:25:26.398Z,27
2022-11-29T07:31:26.449Z,26
2022-11-29T07:37:26.433Z,24
2022-11-29T07:43:26.395Z,23
2022-11-29T07:49:26.409Z,24
2022-11-29T07:55:26.508Z,28
2022-11-29T08:01:26.452Z,23
2022-11-29T08:07:26.485Z,26
2022-11-29T08:13:26.422Z,28
2022-11-29T08:19:26.398Z,31
2022-11-29T08:25:26.405Z,34
2022-11-29T08:31:26.502Z,38
2022-11-29T08:37:26.400Z,37
2022-11-29T08:43:26.448Z,39
2022-11-29T08:49:26.453Z,36
2022-11-29T08:55:26.416Z,36
2022-11-29T09:01:26.500Z,42
2022-11-29T09:07:26.483Z,40
2022-11-29T09:13:26.397Z,39
2022-11-29T09:19:26.390Z,35
2022-11-29T09:25:26.531Z,40
2022-11-29T09:31:26.467Z,39
2022-11-29T09:37:26.397Z,38
2022-11-29T09:43:26.420Z,38
2022-11-29T09:49:26.407Z,35
2022-11-29T09:55:26.397Z,34
2022-11-29T10:01:26.459Z,35
2022-11-29T10:07:26.463Z,31
2022-11-29T10:13:26.375Z,30
2022-11-29T10:19:26.432Z,32
2022-11-29T10:25:26.387Z,31
2022-11-29T10:31:26.395Z,29
2022-11-29T10:37:26.422Z,28
2022-11-29T10:43:26.402Z,27
2022-11-29T10:49:26.418Z,25
2022-11-29T10:55:26.419Z,26
2022-11-29T11:01:26.481Z,24
2022-11-29T11:07:26.458Z,23
2022-11-29T11:13:26.438Z,20
2022-11-29T11:19:26.415Z,21
2022-11-29T11:25:26.435Z,19
2022-11-29T11:31:26.423Z,21
2022-11-29T11:37:26.383Z,22
2022-11-29T11:43:26.383Z,23
2022-11-29T11:49:26.438Z,22
2022-11-29T11:55:26.392Z,21
2022-11-29T12:01:26.422Z,20
2022-11-29T12:07:59.293Z,23
2022-11-29T12:13:26.414Z,21
2022-11-29T12:19:26.382Z,21
2022-11-29T12:25:26.454Z,22
2022-11-29T12:31:26.456Z,23
2022-11-29T12:37:26.404Z,25
2022-11-29T12:43:26.416Z,26
2022-11-29T12:49:26.367Z,26
2022-11-29T12:55:26.385Z,29
2022-11-29T13:01:26.500Z,28
2022-11-29T13:07:26.468Z,28
2022-11-29T13:13:26.385Z,28
2022-11-29T13:19:26.410Z,29
2022-11-29T13:25:26.437Z,28
2022-11-29T13:31:26.760Z,26
2022-11-29T13:37:26.504Z,27
2022-11-29T13:43:29.148Z,27
2022-11-29T13:49:26.430Z,27
2022-11-29T13:55:26.407Z,30
2022-11-29T14:01:26.423Z,29
2022-11-29T14:07:26.502Z,28
2022-11-29T14:13:26.417Z,26
2022-11-29T14:19:30.111Z,31
2022-11-29T14:31:26.463Z,30
2022-11-29T14:37:26.389Z,33
2022-11-29T14:43:26.424Z,32
2022-11-29T14:49:26.438Z,30
2022-11-29T14:55:26.383Z,30
2022-11-29T15:01:26.433Z,29
2022-11-29T15:07:26.451Z,29
2022-11-29T15:13:26.405Z,29
2022-11-29T15:19:26.386Z,31
2022-11-29T15:25:26.428Z,30
2022-11-29T15:31:26.448Z,28
2022-11-29T15:37:26.373Z,32
2022-11-29T15:43:26.443Z,31
2022-11-29T15:49:26.395Z,30
2022-11-29T15:55:26.404Z,31
2022-11-29T16:01:26.496Z,29
2022-11-29T16:07:26.466Z,32
2022-11-29T16:13:26.400Z,37
2022-11-29T16:19:26.433Z,30
2022-11-29T16:25:26.386Z,29
2022-11-29T16:31:26.422Z,36
2022-11-29T16:37:26.421Z,34
2022-11-29T16:43:26.388Z,33
2022-11-29T16:49:26.394Z,33
2022-11-29T16:55:26.435Z,33
2022-11-29T17:01:26.403Z,42
2022-11-29T17:07:26.392Z,47
2022-11-29T17:13:26.423Z,46
2022-11-29T17:19:26.384Z,44
2022-11-29T17:25:26.387Z,36
2022-11-29T17:31:26.434Z,31
2022-11-29T17:37:26.374Z,33
2022-11-29T17:43:26.407Z,35
2022-11-29T17:49:26.417Z,35
2022-11-29T17:55:29.522Z,33
2022-11-29T18:01:26.451Z,33
2022-11-29T18:07:26.488Z,33
2022-11-29T18:13:26.384Z,37
2022-11-29T18:19:26.370Z,31
2022-11-29T18:25:39.889Z,36
2022-11-29T18:31:28.054Z,34
2022-11-29T18:37:54.559Z,34
2022-11-29T18:43:26.423Z,34
2022-11-29T18:49:26.382Z,30
2022-11-29T18:55:26.390Z,27
2022-11-29T19:01:26.425Z,26
2022-11-29T19:07:26.452Z,26
2022-11-29T19:13:26.371Z,27
2022-11-29T19:19:26.436Z,23
2022-11-29T19:25:26.381Z,24
2022-11-29T19:31:26.443Z,22
2022-11-29T19:37:26.407Z,37
2022-11-29T19:43:26.432Z,31
2022-11-29T19:49:26.385Z,38
2022-11-29T19:55:26.388Z,27
2022-11-29T20:01:26.446Z,28
2022-11-29T20:07:26.438Z,26
2022-11-29T20:13:26.409Z,27
2022-11-29T20:19:26.403Z,27
2022-11-29T20:25:26.384Z,28
2022-11-29T20:31:26.473Z,26
2022-11-29T20:37:26.394Z,26
2022-11-29T20:43:26.381Z,28
2022-11-29T20:49:26.462Z,28
2022-11-29T20:55:26.374Z,25
2022-11-29T21:01:26.459Z,27
2022-11-29T21:07:26.427Z,29
2022-11-29T21:13:26.368Z,30
2022-11-29T21:19:26.414Z,28
2022-11-29T21:25:26.401Z,30
2022-11-29T21:31:26.455Z,34
2022-11-29T21:37:26.375Z,31
2022-11-29T21:43:57.889Z,31
2022-11-29T21:49:26.392Z,30
2022-11-29T21:55:31.771Z,31
2022-11-29T22:01:26.437Z,27
2022-11-29T22:07:26.420Z,26
2022-11-29T22:13:26.391Z,28
2022-11-29T22:19:26.423Z,28
2022-11-29T22:25:26.395Z,28
2022-11-29T22:31:26.451Z,26
2022-11-29T22:37:26.491Z,27
2022-11-29T22:43:26.365Z,29
2022-11-29T22:49:26.401Z,27
2022-11-29T22:55:26.402Z,26
2022-11-29T23:01:26.396Z,28
2022-11-29T23:07:26.421Z,26
2022-11-29T23:13:26.427Z,27
2022-11-29T23:19:26.387Z,28
2022-11-29T23:25:26.384Z,25
2022-11-29T23:31:26.457Z,28
2022-11-29T23:37:26.375Z,28
2022-11-29T23:43:26.392Z,28
2022-11-29T23:49:26.409Z,27
2022-11-29T23:55:26.357Z,24
